Time;durP1;ratioP1;P1;durP2;ratioP2;P2;SDS_P1;SDS_P2;PMS_P1;PMS_P2;Temp;Humidity;BMP_temperature;BMP_pressure;BME280_temperature;BME280_humidity;BME280_pressure;Samples;Min_cycle;Max_cycle;Signal;HPM_P1;HPM_P2
2021/12/10 00:01:47;;;;;;;2.38;0.50;;;21.00;98.50;;;;;;5013636;28;20450;-71
2021/12/10 00:04:14;;;;;;;1.60;0.60;;;21.10;98.00;;;;;;5017179;28;20036;-76
2021/12/10 00:06:47;;;;;;;1.20;0.45;;;21.20;98.00;;;;;;5018613;28;20100;-70
2021/12/10 00:09:20;;;;;;;2.10;0.70;;;21.40;97.90;;;;;;5017960;28;20030;-75
2021/12/10 00:11:55;;;;;;;3.08;0.60;;;21.60;97.60;;;;;;5018400;28;20018;-78
2021/12/10 00:14:27;;;;;;;3.63;0.50;;;21.80;97.60;;;;;;5017360;28;20031;-73
2021/12/10 00:16:55;;;;;;;2.05;0.60;;;21.90;96.90;;;;;;5016883;28;20028;-78
2021/12/10 00:19:33;;;;;;;2.03;0.60;;;21.90;95.70;;;;;;5017648;28;20052;-69
2021/12/10 00:22:06;;;;;;;4.15;0.60;;;21.90;95.60;;;;;;5017294;28;20033;-72
2021/12/10 00:24:33;;;;;;;3.33;0.82;;;21.80;95.80;;;;;;5018404;28;20425;-69
2021/12/10 00:27:07;;;;;;;2.50;0.60;;;21.80;95.50;;;;;;5016551;28;20033;-71
2021/12/10 00:29:39;;;;;;;1.85;0.85;;;21.70;95.20;;;;;;5017745;28;20029;-75
2021/12/10 00:32:28;;;;;;;2.85;0.50;;;21.60;95.80;;;;;;5015552;28;20026;-73
2021/12/10 00:34:58;;;;;;;2.22;0.63;;;21.50;96.00;;;;;;5017914;28;20049;-76
2021/12/10 00:37:27;;;;;;;1.80;0.70;;;21.40;97.90;;;;;;5016507;28;20552;-74
2021/12/10 00:39:58;;;;;;;3.63;1.17;;;21.20;99.10;;;;;;4999770;28;20362;-69
2021/12/10 00:42:29;;;;;;;1.98;0.40;;;20.90;99.70;;;;;;5015813;28;20419;-70
2021/12/10 00:44:59;;;;;;;2.38;0.50;;;20.70;99.80;;;;;;5017581;28;20037;-69
2021/12/10 00:47:28;;;;;;;6.40;1.42;;;20.40;99.90;;;;;;5016511;28;20030;-68
2021/12/10 00:49:57;;;;;;;3.58;0.88;;;20.10;99.90;;;;;;5017198;28;20079;-71
2021/12/10 00:52:25;;;;;;;4.43;0.90;;;19.50;99.90;;;;;;4998203;28;20044;-68
2021/12/10 00:54:52;;;;;;;4.55;1.02;;;18.90;99.90;;;;;;5018078;28;20479;-75
2021/12/10 00:57:20;;;;;;;3.28;1.50;;;18.30;99.90;;;;;;5017077;28;20028;-73
2021/12/10 00:59:49;;;;;;;4.82;1.80;;;17.70;99.90;;;;;;5018780;28;20026;-71
2021/12/10 01:02:21;;;;;;;3.20;1.20;;;17.30;99.90;;;;;;5016091;28;20022;-73
2021/12/10 01:04:52;;;;;;;5.87;1.43;;;16.90;99.90;;;;;;5018144;28;20098;-74
2021/12/10 01:07:24;;;;;;;2.33;0.80;;;16.60;99.90;;;;;;5016223;28;20020;-70
2021/12/10 01:09:54;;;;;;;3.38;0.90;;;16.40;99.90;;;;;;5018286;28;20168;-73
2021/12/10 01:12:30;;;;;;;3.83;0.70;;;16.20;99.90;;;;;;5016548;28;20045;-66
2021/12/10 01:15:33;;;;;;;1.65;0.70;;;15.90;99.90;;;;;;5018073;28;20022;-72
2021/12/10 01:23:57;;;;;;;2.45;0.77;;;15.70;99.90;;;;;;5018989;28;20520;-72
2021/12/10 01:29:24;;;;;;;5.70;1.45;;;15.80;99.90;;;;;;5016598;28;20033;-73
2021/12/10 01:31:52;;;;;;;4.43;1.05;;;15.80;99.90;;;;;;5016868;28;20026;-68
2021/12/10 01:34:20;;;;;;;3.88;0.80;;;15.80;99.90;;;;;;5016225;28;20026;-76
2021/12/10 01:36:48;;;;;;;5.70;1.60;;;15.80;99.90;;;;;;5016369;28;20017;-75
2021/12/10 01:39:19;;;;;;;2.72;0.90;;;15.80;99.90;;;;;;5014915;28;20033;-80
2021/12/10 01:41:55;;;;;;;3.45;1.30;;;15.80;99.90;;;;;;5014801;28;20728;-70
2021/12/10 01:44:31;;;;;;;3.13;1.00;;;15.70;99.90;;;;;;5016748;28;20025;-75
2021/12/10 01:47:02;;;;;;;2.97;0.82;;;15.80;99.90;;;;;;5017767;28;20029;-72
2021/12/10 01:49:30;;;;;;;3.22;1.05;;;15.80;99.90;;;;;;5016360;28;20037;-73
2021/12/10 01:51:58;;;;;;;3.33;1.13;;;15.70;99.90;;;;;;5017572;28;20053;-74
2021/12/10 01:54:31;;;;;;;3.70;1.00;;;15.70;99.90;;;;;;5017287;28;20021;-73
2021/12/10 01:57:02;;;;;;;2.13;0.82;;;15.70;99.90;;;;;;5018027;28;20032;-73
2021/12/10 01:59:31;;;;;;;2.45;1.55;;;15.70;99.90;;;;;;5017509;28;20048;-71
2021/12/10 02:02:03;;;;;;;1.73;0.70;;;15.70;99.90;;;;;;4999665;28;20878;-71
2021/12/10 02:04:34;;;;;;;2.80;0.67;;;15.60;99.90;;;;;;5016937;28;20086;-70
2021/12/10 02:07:02;;;;;;;1.27;0.65;;;15.50;99.90;;;;;;5017656;28;20060;-70
2021/12/10 02:09:29;;;;;;;1.90;0.82;;;15.50;99.90;;;;;;5016602;28;20029;-71
2021/12/10 02:11:57;;;;;;;2.35;0.85;;;15.40;99.90;;;;;;5016043;28;20032;-70
2021/12/10 02:14:24;;;;;;;3.08;1.27;;;15.40;99.90;;;;;;5016468;28;20033;-71
2021/12/10 02:16:59;;;;;;;3.95;1.20;;;15.40;99.90;;;;;;5016231;28;20040;-69
2021/12/10 02:19:27;;;;;;;1.98;1.40;;;15.40;99.90;;;;;;5016151;28;20024;-72
2021/12/10 02:21:56;;;;;;;2.28;1.13;;;15.50;99.90;;;;;;5015742;28;20037;-76
2021/12/10 02:24:23;;;;;;;3.70;1.35;;;15.50;99.90;;;;;;5016382;28;20022;-75
2021/12/10 02:26:58;;;;;;;3.80;1.02;;;15.50;99.90;;;;;;5016452;28;20025;-74
2021/12/10 02:29:29;;;;;;;2.70;1.42;;;15.50;99.90;;;;;;5016471;28;20714;-79
2021/12/10 02:31:56;;;;;;;1.33;0.70;;;15.50;99.90;;;;;;5016021;28;20553;-69
2021/12/10 02:34:26;;;;;;;2.58;0.85;;;15.50;99.90;;;;;;5016635;28;20103;-71
2021/12/10 02:36:54;;;;;;;3.53;1.17;;;15.50;99.90;;;;;;5015839;28;20104;-70
2021/12/10 02:39:25;;;;;;;2.17;0.90;;;15.60;99.90;;;;;;5018085;28;20025;-74
2021/12/10 02:41:53;;;;;;;4.30;1.10;;;15.80;99.90;;;;;;5015340;28;20084;-69
2021/12/10 02:44:27;;;;;;;3.03;1.15;;;16.00;99.90;;;;;;5017981;28;20035;-68
2021/12/10 02:46:55;;;;;;;5.60;1.20;;;16.00;99.90;;;;;;5015429;28;20017;-71
2021/12/10 02:49:23;;;;;;;1.92;0.80;;;16.10;99.90;;;;;;5017255;28;20052;-71
2021/12/10 02:51:50;;;;;;;4.80;1.10;;;16.20;99.90;;;;;;5014374;28;20040;-70
2021/12/10 02:54:23;;;;;;;3.45;1.10;;;16.30;99.90;;;;;;5017263;28;20025;-74
2021/12/10 02:56:53;;;;;;;3.80;0.93;;;16.40;99.90;;;;;;5014318;28;20025;-78
2021/12/10 02:59:20;;;;;;;2.63;1.13;;;16.60;99.90;;;;;;5017449;28;20034;-72
2021/12/10 03:01:51;;;;;;;2.92;0.90;;;16.80;99.90;;;;;;5014359;28;20013;-71
2021/12/10 03:04:19;;;;;;;4.47;1.35;;;16.80;99.90;;;;;;5017206;28;20018;-78
2021/12/10 03:06:55;;;;;;;4.35;1.35;;;16.70;99.90;;;;;;5014830;28;20261;-74
2021/12/10 03:09:24;;;;;;;2.67;1.30;;;16.60;99.90;;;;;;5017079;28;20468;-71
2021/12/10 03:11:56;;;;;;;4.82;1.77;;;16.60;99.90;;;;;;5013990;28;20082;-72
2021/12/10 03:14:28;;;;;;;1.80;0.80;;;16.50;99.90;;;;;;5017300;28;20068;-76
2021/12/10 03:16:58;;;;;;;4.88;1.60;;;16.50;99.90;;;;;;5014898;28;20105;-77
2021/12/10 03:19:25;;;;;;;3.40;0.90;;;16.40;99.90;;;;;;5017455;28;20275;-76
2021/12/10 03:21:53;;;;;;;5.60;1.90;;;16.30;99.90;;;;;;5013601;28;20030;-69
2021/12/10 03:24:24;;;;;;;3.15;1.17;;;16.20;99.90;;;;;;5017323;28;20017;-72
2021/12/10 03:26:54;;;;;;;3.20;1.48;;;16.20;99.90;;;;;;5014245;28;20105;-69
2021/12/10 03:29:24;;;;;;;2.90;1.10;;;16.20;99.90;;;;;;5017253;28;20040;-70
2021/12/10 03:31:54;;;;;;;2.03;0.80;;;16.10;99.90;;;;;;5014106;28;20045;-78
2021/12/10 03:34:22;;;;;;;2.53;1.20;;;16.10;99.90;;;;;;5017631;28;20021;-76
2021/12/10 03:36:52;;;;;;;2.95;1.08;;;16.10;99.90;;;;;;5014965;28;20144;-69
2021/12/10 03:39:23;;;;;;;1.70;0.75;;;16.10;99.90;;;;;;5017448;28;20025;-71
2021/12/10 03:41:53;;;;;;;1.98;0.65;;;16.20;99.90;;;;;;5015150;28;20031;-73
2021/12/10 03:44:20;;;;;;;1.05;0.52;;;16.30;99.90;;;;;;5017801;28;20546;-72
2021/12/10 03:46:48;;;;;;;2.67;0.90;;;16.30;99.90;;;;;;5015352;28;20079;-71
2021/12/10 03:49:16;;;;;;;1.67;0.60;;;16.40;99.90;;;;;;5018401;28;20081;-68
2021/12/10 03:51:43;;;;;;;1.55;0.70;;;16.40;99.90;;;;;;5019562;28;20533;-69
2021/12/10 03:54:12;;;;;;;0.75;0.70;;;16.50;99.90;;;;;;5018470;28;20033;-70
2021/12/10 03:56:40;;;;;;;1.63;0.70;;;16.50;99.90;;;;;;5019674;28;20383;-75
2021/12/10 03:59:12;;;;;;;1.45;0.50;;;16.50;99.90;;;;;;5018824;28;20089;-72
2021/12/10 04:01:42;;;;;;;1.33;0.80;;;16.60;99.90;;;;;;5019879;28;20029;-70
2021/12/10 04:04:17;;;;;;;1.83;0.57;;;16.60;99.90;;;;;;5018521;28;20258;-76
2021/12/10 04:06:44;;;;;;;1.73;0.70;;;16.60;99.90;;;;;;5017712;28;20017;-78
2021/12/10 04:09:13;;;;;;;1.05;0.50;;;16.60;99.90;;;;;;5017768;28;20021;-75
2021/12/10 04:11:41;;;;;;;1.73;0.52;;;16.60;99.90;;;;;;5018784;28;20029;-70
2021/12/10 04:14:09;;;;;;;2.35;1.40;;;16.70;99.90;;;;;;5018151;28;20021;-73
2021/12/10 04:16:38;;;;;;;2.30;0.70;;;16.80;99.90;;;;;;5020471;28;20029;-69
2021/12/10 04:19:10;;;;;;;2.05;0.60;;;17.00;99.90;;;;;;5017163;28;20033;-72
2021/12/10 04:21:41;;;;;;;2.33;0.57;;;17.50;99.90;;;;;;5020050;28;20029;-75
2021/12/10 04:24:16;;;;;;;1.13;0.70;;;18.20;99.90;;;;;;5017047;28;20108;-72
2021/12/10 04:26:44;;;;;;;1.70;0.50;;;18.70;99.90;;;;;;5018638;28;20037;-70
2021/12/10 04:29:11;;;;;;;3.40;0.70;;;18.90;99.90;;;;;;5017602;28;20029;-70
2021/12/10 04:31:39;;;;;;;1.40;0.57;;;18.90;99.90;;;;;;5019718;28;20048;-70
2021/12/10 04:34:07;;;;;;;2.83;0.70;;;18.80;99.90;;;;;;5017016;28;20240;-68
2021/12/10 04:36:35;;;;;;;1.00;0.40;;;18.70;99.90;;;;;;5019949;28;20029;-73
2021/12/10 04:39:04;;;;;;;1.30;0.77;;;18.50;99.90;;;;;;4998790;28;20060;-71
2021/12/10 04:41:31;;;;;;;0.95;0.40;;;18.40;99.90;;;;;;5020348;28;20067;-69
2021/12/10 04:43:59;;;;;;;1.83;0.40;;;18.20;99.90;;;;;;5017740;28;20021;-76
2021/12/10 04:46:26;;;;;;;1.13;0.50;;;18.10;99.90;;;;;;5019013;28;20022;-68
2021/12/10 04:49:03;;;;;;;1.08;0.40;;;18.00;99.90;;;;;;5017809;28;20064;-68
2021/12/10 04:51:56;;;;;;;2.58;0.60;;;17.90;99.90;;;;;;5019823;28;20030;-80
2021/12/10 04:54:25;;;;;;;0.77;0.30;;;17.80;99.90;;;;;;5017735;28;20037;-70
2021/12/10 04:56:57;;;;;;;1.80;0.45;;;17.80;99.90;;;;;;5017480;28;20033;-70
2021/12/10 04:59:25;;;;;;;0.95;0.40;;;17.80;99.90;;;;;;5017683;28;20035;-69
2021/12/10 05:01:55;;;;;;;1.58;0.52;;;17.70;99.90;;;;;;5017462;28;20088;-69
2021/12/10 05:04:24;;;;;;;0.73;0.50;;;17.70;99.90;;;;;;5017166;28;20478;-69
2021/12/10 05:06:52;;;;;;;0.63;0.40;;;17.70;99.90;;;;;;5017896;28;20467;-74
2021/12/10 05:09:21;;;;;;;3.40;1.33;;;17.60;99.90;;;;;;5017450;28;20393;-70
2021/12/10 05:11:50;;;;;;;1.02;0.68;;;17.60;99.90;;;;;;5018997;28;20017;-70
2021/12/10 05:14:18;;;;;;;1.38;0.40;;;17.70;99.90;;;;;;5016555;28;20501;-70
2021/12/10 05:16:47;;;;;;;1.23;0.60;;;17.70;99.90;;;;;;5019087;28;20470;-69
2021/12/10 05:19:21;;;;;;;0.50;0.40;;;17.80;99.90;;;;;;5015942;28;20021;-68
2021/12/10 05:21:50;;;;;;;1.88;0.43;;;17.90;99.90;;;;;;5018841;28;20113;-72
2021/12/10 05:24:18;;;;;;;3.33;0.63;;;18.00;99.90;;;;;;5016745;28;20025;-70
2021/12/10 05:26:46;;;;;;;0.35;0.30;;;18.20;99.90;;;;;;5019201;28;20537;-69
2021/12/10 05:29:14;;;;;;;2.10;0.30;;;18.40;99.90;;;;;;4998181;28;20048;-72
2021/12/10 05:31:44;;;;;;;0.77;0.30;;;18.60;99.90;;;;;;5019302;28;20056;-68
2021/12/10 05:34:14;;;;;;;0.45;0.32;;;18.60;99.90;;;;;;5016158;28;20025;-70
2021/12/10 05:36:41;;;;;;;0.60;0.55;;;18.60;99.90;;;;;;5019597;28;20073;-71
2021/12/10 05:39:09;;;;;;;1.85;0.38;;;18.70;99.90;;;;;;5017246;28;20017;-68
2021/12/10 05:41:37;;;;;;;0.65;0.30;;;18.90;99.90;;;;;;5019147;28;20112;-80
2021/12/10 05:44:05;;;;;;;0.73;0.30;;;19.20;99.90;;;;;;5017106;28;20022;-69
2021/12/10 05:46:33;;;;;;;1.23;0.20;;;19.50;99.90;;;;;;5018026;28;20048;-71
2021/12/10 05:49:01;;;;;;;0.20;0.20;;;19.60;99.90;;;;;;5020636;28;20049;-69
2021/12/10 05:51:28;;;;;;;0.20;0.20;;;19.70;99.90;;;;;;5019609;28;20026;-73
2021/12/10 05:53:56;;;;;;;0.30;0.30;;;19.90;99.90;;;;;;5023045;28;20024;-69
2021/12/10 05:56:23;;;;;;;0.70;0.30;;;20.00;99.90;;;;;;5017654;28;20038;-69
2021/12/10 05:58:51;;;;;;;0.20;0.20;;;20.00;99.90;;;;;;5021042;28;20017;-75
2021/12/10 06:01:22;;;;;;;0.93;0.30;;;19.90;99.90;;;;;;5017379;28;20032;-76
2021/12/10 06:03:53;;;;;;;0.50;0.30;;;19.70;99.90;;;;;;5023607;28;20053;-83
2021/12/10 06:06:31;;;;;;;0.20;0.20;;;19.60;99.90;;;;;;5021410;28;20437;-84
2021/12/10 06:09:03;;;;;;;0.85;0.30;;;19.40;99.90;;;;;;5021963;28;20037;-73
2021/12/10 06:11:30;;;;;;;1.70;0.30;;;19.30;99.90;;;;;;5018795;28;20025;-83
2021/12/10 06:13:58;;;;;;;2.33;0.38;;;19.20;99.90;;;;;;5022388;28;20540;-72
2021/12/10 06:16:25;;;;;;;0.45;0.30;;;19.10;99.90;;;;;;5019150;28;20091;-73
2021/12/10 06:18:53;;;;;;;0.93;0.40;;;19.10;99.90;;;;;;5019821;28;20025;-73
2021/12/10 06:21:21;;;;;;;1.10;0.50;;;19.00;99.90;;;;;;5016652;28;20036;-78
2021/12/10 06:23:48;;;;;;;0.63;0.38;;;19.00;99.90;;;;;;5021386;28;20034;-80
2021/12/10 06:26:16;;;;;;;0.93;0.40;;;19.00;99.90;;;;;;5020503;28;20017;-70
2021/12/10 06:28:44;;;;;;;1.65;0.40;;;19.00;99.90;;;;;;5021096;28;20030;-78
2021/12/10 06:31:17;;;;;;;0.77;0.40;;;19.00;99.90;;;;;;5019482;28;20053;-70
2021/12/10 06:33:45;;;;;;;1.63;0.60;;;18.90;99.90;;;;;;5020092;28;20439;-75
2021/12/10 06:36:14;;;;;;;1.80;0.30;;;18.90;99.90;;;;;;5023904;28;20116;-82
2021/12/10 06:38:42;;;;;;;0.57;0.20;;;18.80;99.90;;;;;;5019721;28;20067;-73
2021/12/10 06:41:10;;;;;;;0.20;0.20;;;18.70;99.90;;;;;;5020458;28;20021;-70
2021/12/10 06:43:37;;;;;;;0.15;0.13;;;18.60;99.90;;;;;;5017220;28;20025;-70
2021/12/10 06:46:06;;;;;;;0.52;0.30;;;18.60;99.90;;;;;;5021757;28;20022;-72
2021/12/10 06:48:35;;;;;;;1.27;0.30;;;18.60;99.90;;;;;;5020529;28;20021;-73
2021/12/10 06:51:10;;;;;;;1.75;0.20;;;18.60;99.90;;;;;;5023298;28;20041;-79
2021/12/10 06:53:39;;;;;;;1.73;0.30;;;18.60;99.90;;;;;;5019844;28;20627;-85
2021/12/10 06:56:08;;;;;;;1.23;0.40;;;18.60;99.90;;;;;;5024753;28;20033;-72
2021/12/10 06:58:36;;;;;;;0.30;0.30;;;18.70;99.90;;;;;;5018290;28;20067;-72
2021/12/10 07:01:17;;;;;;;1.10;0.40;;;18.80;99.90;;;;;;5022285;28;20144;-71
2021/12/10 07:03:45;;;;;;;0.80;0.30;;;18.70;99.90;;;;;;5017251;28;20108;-86
2021/12/10 07:06:13;;;;;;;0.63;0.30;;;18.70;99.90;;;;;;5022729;28;20245;-68
2021/12/10 07:08:42;;;;;;;0.20;0.20;;;18.60;99.90;;;;;;5017033;28;20331;-75
2021/12/10 07:11:14;;;;;;;1.17;0.40;;;18.60;99.90;;;;;;5021222;28;20108;-74
2021/12/10 07:13:44;;;;;;;2.17;1.85;;;18.50;99.90;;;;;;5020257;28;20032;-69
2021/12/10 07:16:12;;;;;;;1.50;1.13;;;18.40;99.90;;;;;;5021583;28;20025;-78
2021/12/10 07:18:40;;;;;;;0.20;0.20;;;18.30;99.90;;;;;;5016240;28;20471;-80
2021/12/10 07:21:12;;;;;;;0.35;0.35;;;18.00;99.90;;;;;;5017894;28;20071;-70
2021/12/10 07:23:42;;;;;;;0.20;0.20;;;17.80;99.90;;;;;;5001645;28;20114;-74
2021/12/10 07:26:11;;;;;;;0.60;0.30;;;17.60;99.90;;;;;;5024803;28;20064;-82
2021/12/10 07:28:38;;;;;;;0.22;0.22;;;17.40;99.90;;;;;;5019812;28;20048;-82
2021/12/10 07:31:07;;;;;;;0.68;0.38;;;17.30;99.90;;;;;;5024083;28;20041;-79
2021/12/10 07:33:35;;;;;;;0.85;0.30;;;17.10;99.90;;;;;;5020256;28;20022;-83
2021/12/10 07:36:03;;;;;;;0.30;0.30;;;17.00;99.90;;;;;;5025039;28;20052;-82
2021/12/10 07:38:30;;;;;;;1.17;0.40;;;17.00;99.90;;;;;;5022378;28;20018;-71
2021/12/10 07:40:58;;;;;;;1.35;0.38;;;16.90;99.90;;;;;;5023784;28;20075;-86
2021/12/10 07:43:25;;;;;;;1.17;0.43;;;16.90;99.90;;;;;;5024127;28;20508;-70
2021/12/10 07:45:53;;;;;;;1.45;0.40;;;17.00;99.90;;;;;;5023473;28;20022;-82
2021/12/10 07:48:26;;;;;;;1.35;0.50;;;16.90;99.90;;;;;;5022963;28;20114;-85
2021/12/10 07:51:04;;;;;;;1.23;0.45;;;17.00;99.90;;;;;;5020002;28;20076;-77
2021/12/10 07:53:33;;;;;;;0.85;0.50;;;17.00;99.90;;;;;;5021511;28;20018;-71
2021/12/10 07:56:02;;;;;;;1.25;0.40;;;16.90;99.90;;;;;;5004270;28;20041;-84
2021/12/10 07:58:31;;;;;;;1.88;0.77;;;17.00;99.90;;;;;;5021830;28;20483;-71
2021/12/10 08:00:59;;;;;;;2.78;0.50;;;16.90;99.90;;;;;;5020860;28;20520;-79
2021/12/10 08:03:27;;;;;;;1.30;0.40;;;16.90;99.90;;;;;;5022114;28;20367;-87
2021/12/10 08:05:55;;;;;;;1.67;0.45;;;17.00;99.90;;;;;;5020479;28;20025;-77
2021/12/10 08:08:22;;;;;;;1.25;0.60;;;17.00;99.90;;;;;;5022372;28;20021;-77
2021/12/10 08:10:50;;;;;;;0.60;0.50;;;17.00;99.90;;;;;;5018583;28;20383;-77
2021/12/10 08:13:22;;;;;;;2.47;0.52;;;17.00;99.90;;;;;;5021854;28;20075;-72
2021/12/10 08:15:51;;;;;;;2.97;0.60;;;17.00;99.90;;;;;;5022155;28;20471;-71
2021/12/10 08:18:19;;;;;;;1.40;0.50;;;17.10;99.90;;;;;;5022930;28;20425;-73
2021/12/10 08:20:47;;;;;;;2.60;0.52;;;17.10;99.90;;;;;;5019011;28;20017;-82
2021/12/10 08:23:15;;;;;;;2.90;0.60;;;17.10;99.90;;;;;;5020852;28;20116;-81
2021/12/10 08:25:43;;;;;;;1.70;0.77;;;17.10;99.90;;;;;;5019001;28;20080;-75
2021/12/10 08:28:10;;;;;;;3.17;0.75;;;17.10;99.90;;;;;;5019386;28;20021;-70
2021/12/10 08:30:39;;;;;;;1.38;0.55;;;17.10;99.90;;;;;;5018849;28;20056;-69
2021/12/10 08:33:12;;;;;;;1.13;0.55;;;17.10;99.90;;;;;;5020222;28;20360;-71
2021/12/10 08:35:40;;;;;;;;;;;17.10;99.90;;;;;;5019539;28;20032;-72
2021/12/10 08:38:07;;;;;;;1.38;0.57;;;17.10;99.90;;;;;;5019652;28;19958;-71
2021/12/10 08:40:47;;;;;;;1.30;0.50;;;17.10;99.90;;;;;;5021218;28;20028;-70
2021/12/10 08:43:15;;;;;;;1.50;0.60;;;17.10;99.90;;;;;;5019692;28;20108;-69
2021/12/10 08:45:44;;;;;;;1.27;0.50;;;17.10;99.90;;;;;;5018655;28;20049;-70
2021/12/10 08:48:11;;;;;;;1.40;0.50;;;17.20;99.90;;;;;;5001133;28;20018;-74
2021/12/10 08:50:39;;;;;;;0.75;0.40;;;17.10;99.90;;;;;;5019193;28;20053;-71
2021/12/10 08:53:12;;;;;;;0.93;0.47;;;17.20;99.90;;;;;;5018584;28;20055;-76
2021/12/10 08:55:44;;;;;;;0.70;0.50;;;17.20;99.90;;;;;;5018278;28;20030;-75
2021/12/10 08:58:12;;;;;;;0.60;0.40;;;17.10;99.90;;;;;;5018581;28;20017;-73
2021/12/10 09:00:47;;;;;;;0.52;0.40;;;17.20;99.90;;;;;;5019079;28;20096;-69
2021/12/10 09:03:15;;;;;;;1.55;0.40;;;17.10;99.90;;;;;;5018488;28;20033;-73
2021/12/10 09:05:42;;;;;;;1.42;0.50;;;17.10;99.90;;;;;;5019246;28;20017;-70
2021/12/10 09:08:11;;;;;;;1.08;0.57;;;17.10;99.90;;;;;;5018998;28;20080;-68
2021/12/10 09:10:41;;;;;;;2.53;0.60;;;17.10;99.90;;;;;;5019701;28;20433;-70
2021/12/10 09:13:14;;;;;;;1.00;0.50;;;17.10;99.90;;;;;;5018195;28;20013;-85
2021/12/10 09:15:50;;;;;;;1.65;0.40;;;17.10;99.90;;;;;;5019855;28;20113;-84
2021/12/10 09:18:17;;;;;;;0.75;0.35;;;17.00;99.90;;;;;;5016394;28;20025;-79
2021/12/10 09:20:50;;;;;;;0.57;0.30;;;17.00;99.90;;;;;;5019513;28;20037;-72
2021/12/10 09:23:22;;;;;;;0.77;0.30;;;17.10;99.90;;;;;;5016138;28;20339;-74
2021/12/10 09:25:52;;;;;;;0.85;0.32;;;17.10;99.90;;;;;;5019937;28;20025;-77
2021/12/10 09:28:20;;;;;;;0.30;0.30;;;17.10;99.90;;;;;;5015300;28;20104;-74
2021/12/10 09:30:52;;;;;;;1.65;0.30;;;17.00;99.90;;;;;;5019182;28;20055;-68
2021/12/10 09:33:20;;;;;;;0.47;0.30;;;17.00;99.90;;;;;;5016818;28;20425;-70
2021/12/10 09:35:48;;;;;;;1.15;0.30;;;17.00;99.90;;;;;;5019433;28;20026;-78
2021/12/10 09:38:19;;;;;;;0.57;0.30;;;17.00;99.90;;;;;;5016073;28;20394;-74
2021/12/10 09:40:52;;;;;;;0.20;0.20;;;16.90;99.90;;;;;;5019344;28;20474;-72
2021/12/10 09:43:21;;;;;;;2.22;0.70;;;17.00;99.90;;;;;;5015895;28;20033;-87
2021/12/10 09:45:49;;;;;;;1.10;0.35;;;16.90;99.90;;;;;;5019374;28;20018;-86
2021/12/10 09:48:18;;;;;;;0.32;0.30;;;16.90;99.90;;;;;;5016377;28;20029;-72
2021/12/10 09:50:55;;;;;;;0.52;0.40;;;16.90;99.90;;;;;;5019613;28;20042;-69
2021/12/10 09:53:26;;;;;;;1.25;0.30;;;16.90;99.90;;;;;;5015563;28;20040;-75
2021/12/10 09:55:54;;;;;;;1.00;0.35;;;16.90;99.90;;;;;;5018513;28;20101;-87
2021/12/10 09:58:22;;;;;;;0.68;0.30;;;17.00;99.90;;;;;;5016321;28;20021;-72
2021/12/10 10:01:18;;;;;;;0.75;0.35;;;17.00;99.90;;;;;;5018784;28;20087;-71
2021/12/10 10:03:48;;;;;;;0.65;0.40;;;17.00;99.90;;;;;;5014294;28;20563;-85
2021/12/10 10:06:17;;;;;;;0.82;0.40;;;16.90;99.90;;;;;;5015526;28;20025;-80
2021/12/10 10:08:46;;;;;;;0.57;0.50;;;16.90;99.90;;;;;;5019037;28;20021;-68
2021/12/10 10:11:24;;;;;;;0.40;0.30;;;16.90;99.90;;;;;;5015326;28;20029;-69
2021/12/10 10:13:54;;;;;;;1.00;0.30;;;16.90;99.90;;;;;;5020296;28;20478;-71
2021/12/10 10:16:22;;;;;;;0.20;0.20;;;16.90;99.90;;;;;;5017412;28;20108;-78
2021/12/10 10:18:50;;;;;;;0.50;0.50;;;16.90;99.90;;;;;;5019228;28;20047;-73
2021/12/10 10:21:32;;;;;;;0.57;0.30;;;16.90;99.90;;;;;;5016369;28;20108;-68
2021/12/10 10:24:01;;;;;;;0.75;0.40;;;16.90;99.90;;;;;;5019554;28;20029;-82
2021/12/10 10:26:36;;;;;;;0.50;0.30;;;16.90;99.90;;;;;;5016034;28;20029;-78
2021/12/10 10:29:14;;;;;;;0.50;0.30;;;16.90;99.90;;;;;;5019242;28;20081;-74
2021/12/10 10:31:54;;;;;;;0.25;0.20;;;16.80;99.90;;;;;;5019825;28;20478;-80
2021/12/10 10:34:24;;;;;;;0.30;0.30;;;16.80;99.90;;;;;;5016670;28;20025;-87
2021/12/10 10:36:51;;;;;;;0.30;0.20;;;16.80;99.90;;;;;;5018635;28;20021;-82
2021/12/10 10:39:28;;;;;;;1.27;0.20;;;16.80;99.90;;;;;;5015914;28;20143;-76
2021/12/10 10:41:57;;;;;;;0.22;0.22;;;16.80;99.90;;;;;;5018520;28;20013;-71
2021/12/10 10:44:25;;;;;;;0.57;0.20;;;16.80;99.90;;;;;;5015928;28;20035;-72
2021/12/10 10:46:58;;;;;;;0.25;0.20;;;16.80;99.90;;;;;;5017760;28;20017;-77
2021/12/10 10:49:40;;;;;;;0.22;0.22;;;16.80;99.90;;;;;;5016095;28;20049;-70
2021/12/10 10:52:35;;;;;;;0.20;0.20;;;16.70;99.90;;;;;;5018898;28;20033;-78
2021/12/10 10:55:19;;;;;;;0.30;0.30;;;16.70;99.90;;;;;;5017828;28;20030;-77
2021/12/10 10:58:12;;;;;;;0.22;0.20;;;16.70;99.90;;;;;;5019038;28;20068;-85
2021/12/10 11:00:46;;;;;;;0.30;0.30;;;16.70;99.90;;;;;;5020347;28;20021;-79
2021/12/10 11:03:20;;;;;;;0.47;0.30;;;16.70;99.90;;;;;;5022115;28;20040;-71
2021/12/10 11:05:57;;;;;;;0.47;0.40;;;16.60;99.90;;;;;;5020772;28;20029;-75
2021/12/10 11:08:31;;;;;;;0.43;0.20;;;16.70;99.90;;;;;;5019021;28;20037;-78
2021/12/10 11:11:16;;;;;;;1.70;0.30;;;16.70;99.90;;;;;;5021837;28;20100;-68
2021/12/10 11:13:50;;;;;;;0.20;0.20;;;16.60;99.90;;;;;;5020035;28;20063;-69
2021/12/10 11:16:22;;;;;;;0.20;0.20;;;16.50;99.90;;;;;;5021253;28;20017;-69
2021/12/10 11:18:54;;;;;;;;;;;16.60;99.90;;;;;;5021720;28;20040;-68
2021/12/10 11:21:50;;;;;;;0.30;0.30;;;16.60;99.90;;;;;;5020024;28;19912;-75
2021/12/10 11:24:25;;;;;;;0.60;0.30;;;16.50;99.90;;;;;;5021325;28;20030;-68
2021/12/10 11:27:03;;;;;;;0.40;0.20;;;16.50;99.90;;;;;;5021144;28;20045;-70
2021/12/10 11:29:36;;;;;;;0.30;0.30;;;16.50;99.90;;;;;;5019671;28;20038;-85
2021/12/10 11:32:10;;;;;;;0.22;0.20;;;16.50;99.90;;;;;;5022453;28;20049;-77
2021/12/10 11:35:15;;;;;;;1.65;0.20;;;16.50;99.90;;;;;;5018166;28;20299;-78
2021/12/10 11:37:48;;;;;;;0.22;0.20;;;16.60;99.90;;;;;;5005927;28;20124;-79
2021/12/10 11:40:34;;;;;;;0.22;0.20;;;16.60;99.90;;;;;;5021655;28;20048;-84
2021/12/10 11:43:17;;;;;;;0.25;0.25;;;16.50;99.90;;;;;;5021407;28;20022;-74
2021/12/10 11:46:02;;;;;;;0.68;0.25;;;16.50;99.90;;;;;;5018750;28;20033;-85
2021/12/10 11:48:33;;;;;;;0.28;0.28;;;16.50;99.90;;;;;;5018874;28;20026;-81
2021/12/10 11:51:28;;;;;;;0.57;0.30;;;16.60;99.90;;;;;;5021506;28;20061;-72
2021/12/10 11:54:27;;;;;;;0.30;0.30;;;16.50;99.90;;;;;;5020555;28;20890;-80
2021/12/10 11:57:03;;;;;;;0.50;0.30;;;16.50;99.90;;;;;;5009581;28;20095;-71
2021/12/10 11:59:38;;;;;;;0.55;0.50;;;16.40;99.90;;;;;;5018368;28;20025;-83
2021/12/10 12:02:27;;;;;;;0.68;0.22;;;16.40;99.90;;;;;;5003799;28;20034;-70
2021/12/10 12:04:59;;;;;;;2.08;0.30;;;16.40;99.90;;;;;;5019426;28;20079;-80
2021/12/10 12:07:36;;;;;;;0.32;0.22;;;16.40;99.90;;;;;;5020318;28;20466;-71
2021/12/10 12:10:23;;;;;;;1.63;0.30;;;16.30;99.90;;;;;;5019072;28;20398;-76
2021/12/10 12:13:08;;;;;;;0.20;0.20;;;16.40;99.90;;;;;;5017591;28;20026;-69
2021/12/10 12:15:50;;;;;;;0.25;0.25;;;16.40;99.90;;;;;;5018081;28;20036;-79
2021/12/10 12:18:25;;;;;;;0.20;0.20;;;16.40;99.90;;;;;;5020389;28;20072;-70
2021/12/10 12:27:12;;;;;;;0.30;0.30;;;16.40;99.90;;;;;;5019206;28;20513;-88
2021/12/10 12:29:53;;;;;;;0.65;0.25;;;16.40;99.90;;;;;;5018798;28;20028;-86
2021/12/10 12:32:34;;;;;;;0.30;0.20;;;16.40;99.90;;;;;;5020451;28;20290;-79
2021/12/10 12:35:20;;;;;;;1.17;0.50;;;16.50;99.90;;;;;;5019084;28;20512;-84
2021/12/10 12:37:47;;;;;;;2.20;0.47;;;16.40;99.90;;;;;;5018049;28;20302;-80
2021/12/10 12:40:15;;;;;;;1.85;0.30;;;16.50;99.90;;;;;;5021383;28;20021;-71
2021/12/10 12:42:48;;;;;;;1.08;0.30;;;16.50;99.90;;;;;;5019163;28;20025;-69
2021/12/10 12:45:18;;;;;;;0.52;0.30;;;16.50;99.90;;;;;;5021178;28;20021;-77
2021/12/10 12:47:48;;;;;;;0.85;0.40;;;16.50;99.90;;;;;;5018551;28;20021;-80
2021/12/10 12:50:23;;;;;;;0.50;0.45;;;16.50;99.90;;;;;;5020198;28;20041;-81
2021/12/10 12:53:15;;;;;;;0.95;0.30;;;16.40;99.90;;;;;;5018713;28;20021;-68
2021/12/10 12:55:47;;;;;;;0.95;0.20;;;16.40;99.90;;;;;;5022045;28;20032;-86
2021/12/10 12:58:22;;;;;;;1.35;0.40;;;16.50;99.90;;;;;;5022332;28;20466;-86
2021/12/10 13:01:02;;;;;;;0.20;0.20;;;16.40;99.90;;;;;;5021240;28;20470;-69
2021/12/10 13:03:56;;;;;;;0.30;0.30;;;16.40;99.90;;;;;;5020414;28;20033;-85
2021/12/10 13:06:57;;;;;;;1.00;0.40;;;16.40;99.90;;;;;;5020032;28;20113;-77
2021/12/10 13:09:37;;;;;;;1.20;0.40;;;16.50;99.90;;;;;;5011181;28;20696;-81
2021/12/10 13:12:11;;;;;;;0.30;0.30;;;16.50;99.90;;;;;;5017882;28;20729;-73
2021/12/10 13:14:57;;;;;;;0.88;0.30;;;16.40;99.90;;;;;;5022286;28;20544;-83
2021/12/10 13:17:37;;;;;;;0.97;0.30;;;16.50;99.90;;;;;;5020799;28;20029;-70
2021/12/10 13:20:12;;;;;;;0.55;0.38;;;16.40;99.90;;;;;;5015915;28;20052;-79
2021/12/10 13:22:41;;;;;;;1.08;0.30;;;16.40;99.90;;;;;;5021185;28;20025;-70
2021/12/10 13:25:13;;;;;;;1.52;0.63;;;16.30;99.90;;;;;;5000621;28;20432;-79
2021/12/10 13:27:41;;;;;;;0.32;0.30;;;16.30;99.90;;;;;;5021574;28;20071;-71